createdAt,value
2022-12-04T00:01:30.313Z,95574.59
2022-12-04T00:04:00.231Z,95560.13
2022-12-04T00:06:29.640Z,95560.13
2022-12-04T00:08:58.453Z,95528.47
2022-12-04T00:11:29.489Z,95541.41
2022-12-04T00:14:06.500Z,95550.94
2022-12-04T00:16:36.142Z,95571.09
2022-12-04T00:19:05.060Z,95555.66
2022-12-04T00:21:33.658Z,95544.66
2022-12-04T00:24:02.351Z,95544.66
2022-12-04T00:26:31.940Z,95539.78
2022-12-04T00:29:01.724Z,95564.16
2022-12-04T00:31:32.017Z,95540.44
2022-12-04T00:34:02.212Z,95570.47
2022-12-04T00:36:31.601Z,95565.97
2022-12-04T00:39:01.794Z,95564.16
2022-12-04T00:41:31.900Z,95557.34
2022-12-04T00:44:02.401Z,95555.97
2022-12-04T00:46:31.073Z,95560.25
2022-12-04T00:49:02.627Z,95565.81
2022-12-04T00:51:31.348Z,95554.38
2022-12-04T00:53:59.729Z,95558.88
2022-12-04T00:56:29.890Z,95537.34
2022-12-04T00:59:00.206Z,95556.22
2022-12-04T01:01:31.342Z,95551.91
2022-12-04T01:04:00.291Z,95570.69
2022-12-04T01:06:30.897Z,95548.66
2022-12-04T01:09:00.434Z,95555.38
2022-12-04T01:11:30.720Z,95551.91
2022-12-04T01:14:00.049Z,95556.63
2022-12-04T01:16:32.414Z,95553.53
2022-12-04T01:19:01.298Z,95535.22
2022-12-04T01:21:29.947Z,95556.38
2022-12-04T01:23:58.954Z,95544.19
2022-12-04T01:26:27.413Z,95542.53
2022-12-04T01:28:55.801Z,95538.47
2022-12-04T01:31:24.275Z,95514.50
2022-12-04T01:33:54.551Z,95542.53
2022-12-04T01:36:25.513Z,95508.81
2022-12-04T01:38:54.579Z,95545.38
2022-12-04T01:41:26.895Z,95535.63
2022-12-04T01:44:16.027Z,95541.28
2022-12-04T01:46:46.538Z,95539.25
2022-12-04T01:49:21.600Z,95477.47
2022-12-04T01:51:53.750Z,95532.72
2022-12-04T01:54:28.844Z,95537.00
2022-12-04T01:57:02.599Z,95533.53
2022-12-04T01:59:35.387Z,95532.72
2022-12-04T02:02:07.165Z,95525.03
2022-12-04T02:04:37.803Z,95521.13
2022-12-04T02:07:06.452Z,95531.28
2022-12-04T02:09:36.772Z,95510.16
2022-12-04T02:12:10.261Z,95485.78
2022-12-04T02:14:47.658Z,95529.00
2022-12-04T02:17:24.232Z,95500.16
2022-12-04T02:20:12.524Z,95534.28
2022-12-04T02:22:58.903Z,95528.75
2022-12-04T02:25:37.347Z,95523.84
2022-12-04T02:28:11.664Z,95517.97
2022-12-04T02:30:43.822Z,95525.09
2022-12-04T02:33:20.930Z,95526.94
2022-12-04T02:35:53.610Z,95444.69
2022-12-04T02:38:27.222Z,95510.06
2022-12-04T02:41:00.706Z,95525.28
2022-12-04T02:43:33.888Z,95527.34
2022-12-04T02:46:08.216Z,95525.28
2022-12-04T02:48:40.857Z,95519.00
2022-12-04T02:51:12.876Z,95524.53
2022-12-04T02:53:46.115Z,95530.66
2022-12-04T02:56:18.770Z,95526.38
2022-12-04T02:58:53.082Z,95493.66
2022-12-04T03:01:28.795Z,95497.13
2022-12-04T03:04:02.156Z,95534.28
2022-12-04T03:06:34.752Z,95529.78
2022-12-04T03:09:07.883Z,95526.94
2022-12-04T03:11:39.748Z,95525.28
2022-12-04T03:14:16.126Z,95532.22
2022-12-04T03:16:44.934Z,95519.56
2022-12-04T03:19:18.782Z,95513.84
2022-12-04T03:21:52.456Z,95500.63
2022-12-04T03:24:24.956Z,95515.91
2022-12-04T03:27:00.569Z,95514.22
2022-12-04T03:29:35.567Z,95501.63
2022-12-04T03:32:11.957Z,95510.16
2022-12-04T03:34:46.696Z,95514.91
2022-12-04T03:37:19.336Z,95504.34
2022-12-04T03:39:56.878Z,95509.66
2022-12-04T03:42:29.242Z,95511.09
2022-12-04T03:45:04.434Z,95519.28
2022-12-04T03:47:38.436Z,95518.44
2022-12-04T03:50:11.661Z,95516.22
2022-12-04T03:52:49.999Z,95516.63
2022-12-04T03:55:26.318Z,95490.84
2022-12-04T03:57:58.331Z,95491.22
2022-12-04T04:00:28.692Z,95508.09
2022-12-04T04:03:02.608Z,95503.13
2022-12-04T04:05:33.191Z,95506.03
2022-12-04T04:08:19.615Z,95513.56
2022-12-04T04:10:48.350Z,95512.13
2022-12-04T04:13:34.903Z,95477.44
2022-12-04T04:16:25.162Z,95512.41
2022-12-04T04:19:13.896Z,95517.50
2022-12-04T04:22:01.261Z,95519.47
2022-12-04T04:24:36.096Z,95517.69
2022-12-04T04:27:04.756Z,95510.16
2022-12-04T04:29:33.329Z,95510.75
2022-12-04T04:32:11.166Z,95516.88
2022-12-04T04:34:48.852Z,95524.19
2022-12-04T04:37:26.619Z,95523.31
2022-12-04T04:40:05.215Z,95523.75
2022-12-04T04:42:38.891Z,95521.69
2022-12-04T04:45:09.962Z,95511.34
2022-12-04T04:47:49.246Z,95485.00
2022-12-04T04:50:20.320Z,95517.28
2022-12-04T04:52:52.532Z,95524.19
2022-12-04T04:55:21.654Z,95519.09
2022-12-04T04:57:50.193Z,95526.00
2022-12-04T05:00:22.552Z,95520.50
2022-12-04T05:02:52.768Z,95529.06
2022-12-04T05:05:21.135Z,95502.97
2022-12-04T05:07:49.566Z,95472.13
2022-12-04T05:10:17.962Z,95520.09
2022-12-04T05:12:46.404Z,95487.16
2022-12-04T05:15:14.796Z,95520.25
2022-12-04T05:17:43.130Z,95454.25
2022-12-04T05:20:13.662Z,95516.34
2022-12-04T05:22:41.997Z,95519.22
2022-12-04T05:25:11.724Z,95517.22
2022-12-04T05:27:40.651Z,95522.50
2022-12-04T05:30:10.163Z,95510.91
2022-12-04T05:32:38.447Z,95513.53
2022-12-04T05:35:10.956Z,95507.84
2022-12-04T05:37:42.384Z,95478.41
2022-12-04T05:40:11.577Z,95505.75
2022-12-04T05:42:39.899Z,95513.53
2022-12-04T05:45:09.220Z,95515.22
2022-12-04T05:47:40.493Z,95515.59
2022-12-04T05:50:10.819Z,95514.16
2022-12-04T05:52:41.303Z,95515.63
2022-12-04T05:55:10.087Z,95520.16
2022-12-04T05:57:38.467Z,95488.63
2022-12-04T06:00:08.098Z,95511.78
2022-12-04T06:02:36.639Z,95511.34
2022-12-04T06:05:05.873Z,95520.34
2022-12-04T06:07:34.548Z,95494.03
2022-12-04T06:10:04.414Z,95514.41
2022-12-04T06:12:32.793Z,95511.59
2022-12-04T06:15:01.081Z,95514.09
2022-12-04T06:17:29.600Z,95528.28
2022-12-04T06:19:58.739Z,95494.34
2022-12-04T06:22:27.432Z,95525.34
2022-12-04T06:24:55.741Z,95534.75
2022-12-04T06:27:28.045Z,95520.50
2022-12-04T06:29:56.902Z,95534.94
2022-12-04T06:32:25.539Z,95539.81
2022-12-04T06:34:54.641Z,95538.81
2022-12-04T06:37:24.488Z,95544.69
2022-12-04T06:39:53.906Z,95529.91
2022-12-04T06:42:22.465Z,95542.88
2022-12-04T06:44:52.243Z,95540.00
2022-12-04T06:47:20.577Z,95536.72
2022-12-04T06:49:51.250Z,95542.81
2022-12-04T06:52:20.027Z,95516.81
2022-12-04T06:54:48.380Z,95533.50
2022-12-04T06:57:16.792Z,95536.56
2022-12-04T06:59:45.828Z,95544.34
2022-12-04T07:02:15.831Z,95548.84
2022-12-04T07:04:44.284Z,95537.09
2022-12-04T07:07:12.932Z,95534.63
2022-12-04T07:09:41.243Z,95538.28
2022-12-04T07:12:09.591Z,95543.41
2022-12-04T07:14:37.953Z,95545.06
2022-12-04T07:17:06.929Z,95526.38
2022-12-04T07:19:36.715Z,95554.41
2022-12-04T07:22:05.104Z,95553.19
2022-12-04T07:24:33.516Z,95562.38
2022-12-04T07:27:02.333Z,95556.81
2022-12-04T07:29:31.086Z,95558.84
2022-12-04T07:31:59.518Z,95554.97
2022-12-04T07:34:27.945Z,95560.50
2022-12-04T07:36:57.816Z,95554.78
2022-12-04T07:39:26.187Z,95565.38
2022-12-04T07:41:54.554Z,95559.28
2022-12-04T07:44:22.853Z,95565.31
2022-12-04T07:46:51.209Z,95557.00
2022-12-04T07:49:19.507Z,95532.44
2022-12-04T07:51:47.850Z,95564.50
2022-12-04T07:54:17.984Z,95567.38
2022-12-04T07:56:46.328Z,95569.34
2022-12-04T07:59:14.746Z,95563.59
2022-12-04T08:01:43.114Z,95563.19
2022-12-04T08:04:13.022Z,95546.88
2022-12-04T08:06:41.908Z,95547.28
2022-12-04T08:09:10.624Z,95551.34
2022-12-04T08:11:40.553Z,95548.84
2022-12-04T08:14:10.128Z,95541.94
2022-12-04T08:16:38.607Z,95546.59
2022-12-04T08:19:07.099Z,95550.06
2022-12-04T08:21:35.577Z,95551.69
2022-12-04T08:24:04.409Z,95546.75
2022-12-04T08:26:33.855Z,95552.25
2022-12-04T08:29:04.787Z,95552.41
2022-12-04T08:31:35.877Z,95553.25
2022-12-04T08:34:07.211Z,95544.28
2022-12-04T08:36:36.166Z,95552.84
2022-12-04T08:39:05.056Z,95555.72
2022-12-04T08:41:33.964Z,95552.00
2022-12-04T08:44:04.385Z,95543.84
2022-12-04T08:46:32.831Z,95280.81
2022-12-04T08:49:01.600Z,95514.78
2022-12-04T08:51:32.091Z,95522.41
2022-12-04T08:54:02.749Z,95532.75
2022-12-04T08:56:32.392Z,95533.91
2022-12-04T08:59:02.021Z,95535.81
2022-12-04T09:01:32.254Z,95501.38
2022-12-04T09:04:00.846Z,95540.59
2022-12-04T09:06:29.181Z,95536.75
2022-12-04T09:08:58.364Z,95451.66
2022-12-04T09:11:29.964Z,95538.47
2022-12-04T09:13:59.083Z,95537.88
2022-12-04T09:16:27.948Z,95516.75
2022-12-04T09:18:57.728Z,95548.06
2022-12-04T09:21:26.923Z,95554.97
2022-12-04T09:23:55.304Z,95556.59
2022-12-04T09:26:26.919Z,95547.97
2022-12-04T09:28:57.846Z,95534.31
2022-12-04T09:31:26.661Z,95536.69
2022-12-04T09:33:56.205Z,95547.47
2022-12-04T09:36:25.932Z,95542.38
2022-12-04T09:38:55.792Z,95538.28
2022-12-04T09:41:51.198Z,95535.19
2022-12-04T09:44:24.545Z,95534.97
2022-12-04T09:46:56.438Z,95525.22
2022-12-04T09:49:30.841Z,95510.41
2022-12-04T09:52:05.483Z,95515.66
2022-12-04T09:54:41.034Z,95523.72
2022-12-04T09:57:29.423Z,95514.84
2022-12-04T09:59:58.664Z,95530.91
2022-12-04T10:02:36.926Z,95525.44
2022-12-04T10:05:06.414Z,95534.19
2022-12-04T10:07:47.296Z,95528.59
2022-12-04T10:10:20.750Z,95531.53
2022-12-04T10:12:58.996Z,95533.28
2022-12-04T10:15:35.728Z,95538.44
2022-12-04T10:18:26.776Z,95539.66
2022-12-04T10:21:15.594Z,95526.91
2022-12-04T10:23:57.126Z,95534.91
2022-12-04T10:26:31.248Z,95509.19
2022-12-04T10:29:04.386Z,95530.06
2022-12-04T10:31:36.506Z,95530.63
2022-12-04T10:34:09.064Z,95501.53
2022-12-04T10:36:37.581Z,95524.22
2022-12-04T10:39:16.036Z,95500.13
2022-12-04T10:41:53.293Z,95534.66
2022-12-04T10:44:22.316Z,95469.81
2022-12-04T10:46:52.720Z,95530.88
2022-12-04T10:49:25.244Z,95531.50
2022-12-04T10:51:54.843Z,95530.16
2022-12-04T10:54:31.407Z,95531.34
2022-12-04T10:57:01.712Z,95529.25
2022-12-04T10:59:30.907Z,95509.31
2022-12-04T11:02:07.271Z,95524.59
2022-12-04T11:04:37.131Z,95529.28
2022-12-04T11:07:08.868Z,95526.78
2022-12-04T11:09:38.883Z,95523.25
2022-12-04T11:12:10.483Z,95516.63
2022-12-04T11:14:42.730Z,95515.84
2022-12-04T11:17:18.892Z,95528.16
2022-12-04T11:19:47.967Z,95511.72
2022-12-04T11:22:19.478Z,95501.69
2022-12-04T11:24:56.599Z,95502.88
2022-12-04T11:27:31.696Z,95504.00
2022-12-04T11:30:02.373Z,95488.22
2022-12-04T11:32:32.916Z,95486.19
2022-12-04T11:35:07.137Z,95487.84
2022-12-04T11:37:39.352Z,95473.22
2022-12-04T11:40:21.154Z,95453.31
2022-12-04T11:43:03.846Z,95485.09
2022-12-04T11:45:32.785Z,95478.97
2022-12-04T11:48:03.664Z,95483.78
2022-12-04T11:50:40.873Z,95434.41
2022-12-04T11:53:17.452Z,95451.06
2022-12-04T11:56:08.428Z,95446.38
2022-12-04T11:58:56.940Z,95477.00
2022-12-04T12:01:42.386Z,95433.84
2022-12-04T12:04:38.525Z,95462.16
2022-12-04T12:07:25.240Z,95474.09
2022-12-04T12:10:05.246Z,95478.75
2022-12-04T12:12:45.418Z,95475.81
2022-12-04T12:15:25.802Z,95490.09
2022-12-04T12:18:16.461Z,95468.50
2022-12-04T12:20:57.296Z,95460.47
2022-12-04T12:23:41.714Z,95376.28
2022-12-04T12:26:13.186Z,95460.84
2022-12-04T12:29:02.997Z,95457.88
2022-12-04T12:31:51.688Z,95456.13
2022-12-04T12:34:37.402Z,95442.44
2022-12-04T12:37:17.063Z,95413.22
2022-12-04T12:39:49.688Z,95427.47
2022-12-04T12:42:22.991Z,95428.69
2022-12-04T12:44:59.415Z,95428.78
2022-12-04T12:47:32.221Z,95424.28
2022-12-04T12:50:06.247Z,95418.22
2022-12-04T12:52:40.236Z,95412.50
2022-12-04T12:55:19.665Z,95405.72
2022-12-04T12:58:02.615Z,95403.50
2022-12-04T13:00:38.403Z,95394.56
2022-12-04T13:03:13.636Z,95399.72
2022-12-04T13:05:46.991Z,95399.28
2022-12-04T13:08:22.796Z,95402.75
2022-12-04T13:11:03.317Z,95401.28
2022-12-04T13:13:35.141Z,95371.34
2022-12-04T13:16:11.947Z,95396.56
2022-12-04T13:18:45.413Z,95393.59
2022-12-04T13:21:34.400Z,95387.50
2022-12-04T13:24:32.087Z,95374.53
2022-12-04T13:27:08.460Z,95382.56
2022-12-04T13:29:51.574Z,95366.06
2022-12-04T13:32:51.453Z,95376.34
2022-12-04T13:35:29.617Z,95391.81
2022-12-04T13:38:15.227Z,95400.53
2022-12-04T13:40:47.905Z,95404.97
2022-12-04T13:43:32.585Z,95387.13
2022-12-04T13:46:03.899Z,95372.69
2022-12-04T13:48:40.346Z,95398.84
2022-12-04T13:51:24.362Z,95384.41
2022-12-04T13:54:02.568Z,95397.00
2022-12-04T13:56:32.655Z,95401.22
2022-12-04T13:59:03.483Z,95407.31
2022-12-04T14:01:38.848Z,95384.91
2022-12-04T14:04:09.081Z,95402.75
2022-12-04T14:06:40.548Z,95399.22
2022-12-04T14:09:19.741Z,95409.81
2022-12-04T14:11:52.492Z,95406.34
2022-12-04T14:14:28.963Z,95412.31
2022-12-04T14:16:59.473Z,95402.97
2022-12-04T14:19:33.753Z,95405.44
2022-12-04T14:22:02.289Z,95405.69
2022-12-04T14:24:35.179Z,95406.34
2022-12-04T14:27:12.529Z,95412.31
2022-12-04T14:29:49.656Z,95409.09
2022-12-04T14:32:23.579Z,95423.56
2022-12-04T14:34:54.847Z,95414.22
2022-12-04T14:37:30.669Z,95409.09
2022-12-04T14:40:00.161Z,95351.66
2022-12-04T14:42:34.890Z,95368.53
2022-12-04T14:45:06.369Z,95388.72
2022-12-04T14:47:44.480Z,95414.06
2022-12-04T14:50:26.903Z,95393.78
2022-12-04T14:53:05.173Z,95403.31
2022-12-04T14:55:41.747Z,95395.91
2022-12-04T14:58:34.773Z,95388.34
2022-12-04T15:01:05.204Z,95376.34
2022-12-04T15:03:37.920Z,95400.88
2022-12-04T15:06:10.267Z,95406.47
2022-12-04T15:08:49.506Z,95402.78
2022-12-04T15:11:40.124Z,95404.78
2022-12-04T15:14:15.008Z,95410.06
2022-12-04T15:16:43.653Z,95408.81
2022-12-04T15:19:18.968Z,95401.00
2022-12-04T15:21:49.220Z,95388.38
2022-12-04T15:24:24.323Z,95389.53
2022-12-04T15:26:54.073Z,95404.94
2022-12-04T15:29:26.085Z,95396.97
2022-12-04T15:31:57.971Z,95382.50
2022-12-04T15:34:32.386Z,95405.53
2022-12-04T15:37:08.018Z,95394.09
2022-12-04T15:39:38.233Z,95402.00
2022-12-04T15:42:08.563Z,95408.34
2022-12-04T15:44:38.007Z,95396.69
2022-12-04T15:47:23.977Z,95397.34
2022-12-04T15:49:52.748Z,95404.72
2022-12-04T15:52:25.365Z,95402.69
2022-12-04T15:54:57.797Z,95381.50
2022-12-04T15:57:30.995Z,95414.88
2022-12-04T16:00:03.212Z,95403.53
2022-12-04T16:02:35.852Z,95402.94
2022-12-04T16:05:13.537Z,95405.97
2022-12-04T16:07:52.724Z,95374.56
2022-12-04T16:10:23.147Z,95408.19
2022-12-04T16:12:54.753Z,95413.69
2022-12-04T16:15:23.867Z,95402.66
2022-12-04T16:17:53.181Z,95407.13
2022-12-04T16:20:22.747Z,95398.97
2022-12-04T16:22:56.149Z,95386.06
2022-12-04T16:25:25.030Z,95405.25
2022-12-04T16:27:54.386Z,95398.00
2022-12-04T16:30:23.075Z,95374.59
2022-12-04T16:32:51.387Z,95395.59
2022-12-04T16:35:19.944Z,95386.25
2022-12-04T16:37:49.103Z,95383.00
2022-12-04T16:40:19.164Z,95383.22
2022-12-04T16:42:47.514Z,95377.91
2022-12-04T16:45:24.464Z,95356.81
2022-12-04T16:47:53.144Z,95389.31
2022-12-04T16:50:21.931Z,95319.25
2022-12-04T16:52:50.225Z,95385.03
2022-12-04T16:55:25.947Z,95370.00
2022-12-04T16:57:54.311Z,95388.88
2022-12-04T17:00:24.151Z,95312.91
2022-12-04T17:02:52.973Z,95384.84
2022-12-04T17:05:23.371Z,95397.72
2022-12-04T17:07:51.951Z,95408.34
2022-12-04T17:10:24.153Z,95405.75
2022-12-04T17:12:54.769Z,95408.09
2022-12-04T17:15:23.537Z,95392.19
2022-12-04T17:17:52.150Z,95394.97
2022-12-04T17:20:22.291Z,95413.25
2022-12-04T17:22:51.062Z,95436.38
2022-12-04T17:25:19.815Z,95370.06
2022-12-04T17:27:49.971Z,95369.53
2022-12-04T17:30:18.479Z,95412.13
2022-12-04T17:32:47.925Z,95375.09
2022-12-04T17:35:16.837Z,95395.91
2022-12-04T17:37:45.589Z,95339.53
2022-12-04T17:40:14.957Z,95375.56
2022-12-04T17:42:44.649Z,95388.09
2022-12-04T17:45:17.074Z,95400.22
2022-12-04T17:47:45.436Z,95408.34
2022-12-04T17:50:15.755Z,95403.03
2022-12-04T17:52:44.545Z,95379.66
2022-12-04T17:55:12.854Z,95305.31
2022-12-04T17:57:41.235Z,95378.09
2022-12-04T18:00:10.864Z,95401.84
2022-12-04T18:02:42.626Z,95391.22
2022-12-04T18:05:11.830Z,95402.53
2022-12-04T18:07:40.306Z,95401.47
2022-12-04T18:10:09.240Z,95399.69
2022-12-04T18:12:38.460Z,95403.47
2022-12-04T18:15:07.920Z,95388.88
2022-12-04T18:17:37.213Z,95407.47
2022-12-04T18:20:09.109Z,95395.28
2022-12-04T18:22:37.700Z,95410.69
2022-12-04T18:25:07.532Z,95409.09
2022-12-04T18:27:40.464Z,95397.88
2022-12-04T18:30:10.977Z,95399.50
2022-12-04T18:32:39.459Z,95322.50
2022-12-04T18:35:10.052Z,95395.22
2022-12-04T18:37:38.414Z,95392.34
2022-12-04T18:40:08.720Z,95392.72
2022-12-04T18:42:37.763Z,95398.00
2022-12-04T18:45:06.848Z,95333.59
2022-12-04T18:47:36.754Z,95326.31
2022-12-04T18:50:05.219Z,95350.94
2022-12-04T18:52:38.618Z,95368.69
2022-12-04T18:55:07.483Z,95357.81
2022-12-04T18:57:35.962Z,95397.56
2022-12-04T19:00:05.010Z,95400.22
2022-12-04T19:02:33.483Z,95391.81
2022-12-04T19:05:02.572Z,95388.59
2022-12-04T19:07:31.092Z,95393.31
2022-12-04T19:10:16.345Z,95402.88
2022-12-04T19:12:44.876Z,95392.28
2022-12-04T19:15:13.315Z,95395.97
2022-12-04T19:17:41.727Z,95394.34
2022-12-04T19:20:11.537Z,95400.03
2022-12-04T19:22:40.058Z,95397.00
2022-12-04T19:25:10.836Z,95397.94
2022-12-04T19:27:39.369Z,95356.91
2022-12-04T19:30:09.063Z,95412.63
2022-12-04T19:32:37.459Z,95408.50
2022-12-04T19:35:06.317Z,95409.63
2022-12-04T19:37:38.276Z,95415.13
2022-12-04T19:40:13.898Z,95415.94
2022-12-04T19:42:42.286Z,95404.38
2022-12-04T19:45:11.482Z,95414.03
2022-12-04T19:47:39.843Z,95417.34
2022-12-04T19:50:10.484Z,95417.63
2022-12-04T19:52:40.156Z,95368.53
2022-12-04T19:55:13.686Z,95412.53
2022-12-04T19:57:43.563Z,95410.31
2022-12-04T20:00:15.104Z,95409.09
2022-12-04T20:02:44.880Z,95403.56
2022-12-04T20:05:14.891Z,95413.28
2022-12-04T20:07:44.813Z,95405.31
2022-12-04T20:10:16.699Z,95398.19
2022-12-04T20:12:46.498Z,95404.94
2022-12-04T20:15:16.193Z,95400.22
2022-12-04T20:17:45.867Z,95401.28
2022-12-04T20:20:16.039Z,95400.47
2022-12-04T20:22:45.869Z,95393.31
2022-12-04T20:25:17.219Z,95392.94
2022-12-04T20:27:47.952Z,95398.47
2022-12-04T20:30:17.757Z,95393.75
2022-12-04T20:32:47.382Z,95405.38
2022-12-04T20:35:17.280Z,95399.63
2022-12-04T20:37:47.312Z,95402.28
2022-12-04T20:40:19.798Z,95406.16
2022-12-04T20:42:49.348Z,95407.97
2022-12-04T20:45:19.075Z,95385.09
2022-12-04T20:47:48.935Z,95377.00
2022-12-04T20:50:19.450Z,95371.25
2022-12-04T20:52:49.126Z,95413.06
2022-12-04T20:55:20.699Z,95393.19
2022-12-04T20:57:50.415Z,95409.38
2022-12-04T21:00:20.633Z,95410.19
2022-12-04T21:02:51.560Z,95403.63
2022-12-04T21:05:21.900Z,95413.44
2022-12-04T21:07:50.456Z,95405.72
2022-12-04T21:10:20.212Z,95408.13
2022-12-04T21:13:07.079Z,95402.81
2022-12-04T21:15:54.497Z,95403.63
2022-12-04T21:18:24.772Z,95401.78
2022-12-04T21:20:57.145Z,95408.34
2022-12-04T21:23:27.375Z,95403.06
2022-12-04T21:25:59.676Z,95399.97
2022-12-04T21:28:29.501Z,95396.25
2022-12-04T21:31:03.677Z,95399.88
2022-12-04T21:33:36.139Z,95397.88
2022-12-04T21:36:07.187Z,95402.19
2022-12-04T21:38:37.580Z,95333.03
2022-12-04T21:41:11.177Z,95393.84
2022-12-04T21:43:41.051Z,95387.34
2022-12-04T21:46:10.994Z,95398.91
2022-12-04T21:48:39.765Z,95368.19
2022-12-04T21:51:26.668Z,95399.81
2022-12-04T21:53:57.837Z,95393.69
2022-12-04T21:56:28.023Z,95361.19
2022-12-04T21:58:56.635Z,95381.06
2022-12-04T22:01:26.731Z,95399.13
2022-12-04T22:03:56.888Z,95394.34
2022-12-04T22:06:26.256Z,95391.13
2022-12-04T22:08:54.604Z,95393.47
2022-12-04T22:11:23.123Z,95370.00
2022-12-04T22:13:52.840Z,95393.25
2022-12-04T22:16:26.789Z,95391.75
2022-12-04T22:18:59.240Z,95402.75
2022-12-04T22:21:29.364Z,95399.44
2022-12-04T22:23:58.756Z,95400.25
2022-12-04T22:26:28.329Z,95387.41
2022-12-04T22:28:58.490Z,95398.75
2022-12-04T22:31:28.825Z,95380.19
2022-12-04T22:33:59.852Z,95393.19
2022-12-04T22:36:30.913Z,95398.00
2022-12-04T22:39:09.497Z,95317.84
2022-12-04T22:41:39.191Z,95402.09
2022-12-04T22:44:09.004Z,95364.78
2022-12-04T22:46:37.311Z,95408.56
2022-12-04T22:49:05.865Z,95400.41
2022-12-04T22:51:34.279Z,95394.41
2022-12-04T22:54:02.771Z,95398.19
2022-12-04T22:56:32.629Z,95352.19
2022-12-04T22:59:01.552Z,95391.25
2022-12-04T23:01:33.050Z,95381.66
2022-12-04T23:04:02.248Z,95372.47
2022-12-04T23:06:33.027Z,95382.84
2022-12-04T23:09:03.595Z,95389.94
2022-12-04T23:11:32.681Z,95385.94
2022-12-04T23:14:04.555Z,95384.09
2022-12-04T23:16:37.040Z,95379.63
2022-12-04T23:19:05.579Z,95355.34
2022-12-04T23:21:34.481Z,95377.03
2022-12-04T23:24:03.049Z,95291.72
2022-12-04T23:26:36.457Z,95389.34
2022-12-04T23:29:18.050Z,95382.41
2022-12-04T23:31:55.687Z,95391.69
2022-12-04T23:34:24.223Z,95379.25
2022-12-04T23:36:52.499Z,95295.16
2022-12-04T23:39:20.974Z,95388.16
2022-12-04T23:41:49.273Z,95387.16
2022-12-04T23:44:18.095Z,95390.38
2022-12-04T23:46:46.466Z,95385.06
2022-12-04T23:49:16.336Z,95388.09
2022-12-04T23:51:44.815Z,95348.59
2022-12-04T23:54:13.926Z,95378.50
2022-12-04T23:56:42.242Z,95391.53
2022-12-04T23:59:10.698Z,95385.06
